createdAt,value
2018-02-01T00:01:05.284Z,99.90
2018-02-01T00:03:32.883Z,99.90
2018-02-01T00:06:00.846Z,99.90
2018-02-01T00:08:28.478Z,99.90
2018-02-01T00:10:56.139Z,99.90
2018-02-01T00:13:23.779Z,99.90
2018-02-01T00:15:52.154Z,99.90
2018-02-01T00:18:19.788Z,99.90
2018-02-01T00:20:47.408Z,99.90
2018-02-01T00:23:15.841Z,99.90
2018-02-01T00:25:43.487Z,99.90
2018-02-01T00:28:11.116Z,99.90
2018-02-01T00:30:39.485Z,99.90
2018-02-01T00:33:07.112Z,99.90
2018-02-01T00:35:34.755Z,99.90
2018-02-01T00:38:02.388Z,99.90
2018-02-01T00:40:30.016Z,99.90
2018-02-01T00:42:57.649Z,99.90
2018-02-01T00:45:25.318Z,99.90
2018-02-01T00:47:52.959Z,99.90
2018-02-01T00:50:20.565Z,99.90
2018-02-01T00:52:48.190Z,99.90
2018-02-01T00:55:15.831Z,99.90
2018-02-01T00:57:43.486Z,99.90
2018-02-01T01:00:11.130Z,99.90
2018-02-01T01:02:38.772Z,99.90
2018-02-01T01:05:07.114Z,99.90
2018-02-01T01:07:34.748Z,99.90
2018-02-01T01:10:02.347Z,99.90
2018-02-01T01:12:29.976Z,99.90
2018-02-01T01:14:57.584Z,99.90
2018-02-01T01:17:26.109Z,99.90
2018-02-01T01:19:53.783Z,99.90
2018-02-01T01:22:21.399Z,99.90
2018-02-01T01:24:49.017Z,99.90
2018-02-01T01:27:16.623Z,99.90
2018-02-01T01:29:44.250Z,99.90
2018-02-01T01:32:11.845Z,99.90
2018-02-01T01:34:39.468Z,99.90
2018-02-01T01:37:07.085Z,99.90
2018-02-01T01:39:34.742Z,99.90
2018-02-01T01:42:02.392Z,99.90
2018-02-01T01:44:30.041Z,99.90
2018-02-01T01:46:57.689Z,99.90
2018-02-01T01:49:25.312Z,99.90
2018-02-01T01:51:52.945Z,99.90
2018-02-01T01:54:20.567Z,99.90
2018-02-01T01:56:48.208Z,99.90
2018-02-01T01:59:15.816Z,99.90
2018-02-01T02:01:43.493Z,99.90
2018-02-01T02:04:11.110Z,99.90
2018-02-01T02:06:38.744Z,99.90
2018-02-01T02:09:06.394Z,99.90
2018-02-01T02:11:34.019Z,99.90
2018-02-01T02:14:01.630Z,99.90
2018-02-01T02:16:30.216Z,99.90
2018-02-01T02:18:57.832Z,99.90
2018-02-01T02:21:25.461Z,99.90
2018-02-01T02:23:53.095Z,99.90
2018-02-01T02:26:20.729Z,99.90
2018-02-01T02:28:48.350Z,99.90
2018-02-01T02:31:15.974Z,99.90
2018-02-01T02:33:43.619Z,99.90
2018-02-01T02:36:11.220Z,99.90
2018-02-01T02:38:38.852Z,99.90
2018-02-01T02:41:06.446Z,99.90
2018-02-01T02:43:34.067Z,99.90
2018-02-01T02:46:02.687Z,99.90
2018-02-01T02:48:30.318Z,99.90
2018-02-01T02:50:58.923Z,99.90
2018-02-01T02:53:26.564Z,99.90
2018-02-01T02:55:54.191Z,99.90
2018-02-01T02:58:21.798Z,99.90
2018-02-01T03:00:49.451Z,99.90
2018-02-01T03:03:17.060Z,99.90
2018-02-01T03:05:44.671Z,99.90
2018-02-01T03:08:12.270Z,99.90
2018-02-01T03:10:39.915Z,99.90
2018-02-01T03:13:07.541Z,99.90
2018-02-01T03:15:35.167Z,99.90
2018-02-01T03:18:02.787Z,99.90
2018-02-01T03:20:30.438Z,99.90
2018-02-01T03:22:58.077Z,99.90
2018-02-01T03:25:25.713Z,99.90
2018-02-01T03:27:53.336Z,99.90
2018-02-01T03:30:20.934Z,99.90
2018-02-01T03:32:48.563Z,99.90
2018-02-01T03:35:17.111Z,99.90
2018-02-01T03:37:44.745Z,99.90
2018-02-01T03:40:12.344Z,99.90
2018-02-01T03:42:39.959Z,99.90
2018-02-01T03:45:07.534Z,99.90
2018-02-01T03:47:35.150Z,99.90
2018-02-01T03:50:03.540Z,99.90
2018-02-01T03:52:31.157Z,99.90
2018-02-01T03:54:58.769Z,99.90
2018-02-01T03:57:26.379Z,99.90
2018-02-01T03:59:53.976Z,99.90
2018-02-01T04:02:21.591Z,99.90
2018-02-01T04:04:49.183Z,99.90
2018-02-01T04:07:16.818Z,99.90
2018-02-01T04:09:44.435Z,99.90
2018-02-01T04:12:12.068Z,99.90
2018-02-01T04:14:40.434Z,99.90
2018-02-01T04:17:08.059Z,99.90
2018-02-01T04:19:35.685Z,99.90
2018-02-01T04:22:03.303Z,99.90
2018-02-01T04:24:30.931Z,99.90
2018-02-01T04:26:58.559Z,99.90
2018-02-01T04:29:26.188Z,99.90
2018-02-01T04:31:53.824Z,99.90
2018-02-01T04:34:21.455Z,99.90
2018-02-01T04:36:49.027Z,99.90
2018-02-01T04:39:16.667Z,99.90
2018-02-01T04:41:44.289Z,99.90
2018-02-01T04:44:11.912Z,99.90
2018-02-01T04:46:39.535Z,99.90
2018-02-01T04:49:07.179Z,99.90
2018-02-01T04:51:34.805Z,99.90
2018-02-01T04:54:02.474Z,99.90
2018-02-01T04:56:30.069Z,99.90
2018-02-01T04:58:57.713Z,99.90
2018-02-01T05:01:25.363Z,99.90
2018-02-01T05:03:52.955Z,99.90
2018-02-01T05:06:20.574Z,99.90
2018-02-01T05:08:48.158Z,99.90
2018-02-01T05:11:15.759Z,99.90
2018-02-01T05:13:43.379Z,99.90
2018-02-01T05:16:10.991Z,99.90
2018-02-01T05:18:38.590Z,99.90
2018-02-01T05:21:06.208Z,99.90
2018-02-01T05:23:33.812Z,99.90
2018-02-01T05:26:01.449Z,99.90
2018-02-01T05:28:30.062Z,99.90
2018-02-01T05:30:57.692Z,99.90
2018-02-01T05:33:25.314Z,99.90
2018-02-01T05:35:52.941Z,99.90
2018-02-01T05:38:20.563Z,99.90
2018-02-01T05:40:48.189Z,99.90
2018-02-01T05:43:16.723Z,99.90
2018-02-01T05:45:45.503Z,99.90
2018-02-01T05:48:13.077Z,99.90
2018-02-01T05:50:40.684Z,99.90
2018-02-01T05:53:08.309Z,99.90
2018-02-01T05:55:35.940Z,99.90
2018-02-01T05:58:03.528Z,99.90
2018-02-01T06:00:31.158Z,99.90
2018-02-01T06:02:58.763Z,99.90
2018-02-01T06:05:26.409Z,99.90
2018-02-01T06:07:54.068Z,99.90
2018-02-01T06:10:21.703Z,99.90
2018-02-01T06:12:49.338Z,99.90
2018-02-01T06:15:16.952Z,99.90
2018-02-01T06:17:44.545Z,99.90
2018-02-01T06:20:12.187Z,99.90
2018-02-01T06:22:39.799Z,99.90
2018-02-01T06:25:07.423Z,99.90
2018-02-01T06:27:35.069Z,99.90
2018-02-01T06:30:02.710Z,99.90
2018-02-01T06:32:33.560Z,99.90
2018-02-01T06:35:01.167Z,99.90
2018-02-01T06:37:28.794Z,99.90
2018-02-01T06:39:56.423Z,99.90
2018-02-01T06:42:24.023Z,99.90
2018-02-01T06:44:51.648Z,99.90
2018-02-01T06:47:19.342Z,99.90
2018-02-01T06:49:47.171Z,99.90
2018-02-01T06:52:15.777Z,99.90
2018-02-01T06:54:43.416Z,99.90
2018-02-01T06:57:11.032Z,99.90
2018-02-01T06:59:38.665Z,99.90
2018-02-01T07:02:07.022Z,99.90
2018-02-01T07:04:34.824Z,99.90
2018-02-01T07:07:06.317Z,99.90
2018-02-01T07:09:33.948Z,99.90
2018-02-01T07:12:01.560Z,99.90
2018-02-01T07:14:29.169Z,99.90
2018-02-01T07:16:58.541Z,99.90
2018-02-01T07:19:26.928Z,99.90
2018-02-01T07:21:54.552Z,99.90
2018-02-01T07:24:22.175Z,99.90
2018-02-01T07:26:50.110Z,99.90
2018-02-01T07:29:17.718Z,99.90
2018-02-01T07:31:45.347Z,99.90
2018-02-01T07:34:12.971Z,99.90
2018-02-01T07:36:40.618Z,99.90
2018-02-01T07:39:08.209Z,99.90
2018-02-01T07:41:35.861Z,99.90
2018-02-01T07:44:03.495Z,99.90
2018-02-01T07:46:35.592Z,99.90
2018-02-01T07:49:03.205Z,99.90
2018-02-01T07:51:31.808Z,99.90
2018-02-01T07:53:59.403Z,99.90
2018-02-01T07:56:27.804Z,99.90
2018-02-01T07:58:55.414Z,99.90
2018-02-01T08:01:23.028Z,99.90
2018-02-01T08:03:50.640Z,99.90
2018-02-01T08:06:18.229Z,99.90
2018-02-01T08:08:45.865Z,99.90
2018-02-01T08:11:13.506Z,99.90
2018-02-01T08:13:41.149Z,99.90
2018-02-01T08:16:08.796Z,99.90
2018-02-01T08:18:36.416Z,99.90
2018-02-01T08:21:04.049Z,99.90
2018-02-01T08:23:31.664Z,99.90
2018-02-01T08:25:59.283Z,99.90
2018-02-01T08:28:26.878Z,99.90
2018-02-01T08:30:54.502Z,99.90
2018-02-01T08:33:22.127Z,99.90
2018-02-01T08:35:49.762Z,99.90
2018-02-01T08:38:17.392Z,99.90
2018-02-01T08:40:46.072Z,99.90
2018-02-01T08:43:13.716Z,99.90
2018-02-01T08:45:42.326Z,99.90
2018-02-01T08:48:09.944Z,99.90
2018-02-01T08:50:38.555Z,99.90
2018-02-01T08:53:06.203Z,99.90
2018-02-01T08:55:33.916Z,99.90
2018-02-01T08:58:01.564Z,99.90
2018-02-01T09:00:29.207Z,99.90
2018-02-01T09:02:56.853Z,99.90
2018-02-01T09:05:24.467Z,99.90
2018-02-01T09:07:52.091Z,99.90
2018-02-01T09:10:20.227Z,99.90
2018-02-01T09:12:48.317Z,99.90
2018-02-01T09:15:15.972Z,99.90
2018-02-01T09:17:43.639Z,99.90
2018-02-01T09:20:11.269Z,99.90
2018-02-01T09:22:38.925Z,99.90
2018-02-01T09:25:06.736Z,99.90
2018-02-01T09:27:34.386Z,99.90
2018-02-01T09:30:02.045Z,99.90
2018-02-01T09:32:29.682Z,99.90
2018-02-01T09:34:57.389Z,99.90
2018-02-01T09:37:24.998Z,99.90
2018-02-01T09:39:52.633Z,99.90
2018-02-01T09:42:20.263Z,99.90
2018-02-01T09:44:48.855Z,99.90
2018-02-01T09:47:16.485Z,99.90
2018-02-01T09:49:44.129Z,99.90
2018-02-01T09:52:11.740Z,99.90
2018-02-01T09:54:39.387Z,99.90
2018-02-01T09:57:06.999Z,99.80
2018-02-01T09:59:34.662Z,99.30
2018-02-01T10:02:02.259Z,99.30
2018-02-01T10:04:29.880Z,99.30
2018-02-01T10:06:57.456Z,99.20
2018-02-01T10:09:25.088Z,99.00
2018-02-01T10:11:52.698Z,99.70
2018-02-01T10:14:20.303Z,99.30
2018-02-01T10:16:47.925Z,98.50
2018-02-01T10:19:15.512Z,98.60
2018-02-01T10:21:43.135Z,98.70
2018-02-01T10:24:10.816Z,98.40
2018-02-01T10:26:38.448Z,98.30
2018-02-01T10:29:07.061Z,98.40
2018-02-01T10:31:34.681Z,98.40
2018-02-01T10:34:02.296Z,98.30
2018-02-01T10:36:29.939Z,97.70
2018-02-01T10:38:57.576Z,98.10
2018-02-01T10:41:25.234Z,97.60
2018-02-01T10:43:52.846Z,97.90
2018-02-01T10:46:20.486Z,97.20
2018-02-01T10:48:49.052Z,98.00
2018-02-01T10:51:16.665Z,98.00
2018-02-01T10:53:45.210Z,97.20
2018-02-01T10:56:21.621Z,96.30
2018-02-01T10:58:49.240Z,96.40
2018-02-01T11:01:29.522Z,96.30
2018-02-01T11:03:57.147Z,96.30
2018-02-01T11:06:24.725Z,97.20
2018-02-01T11:08:53.096Z,95.30
2018-02-01T11:11:20.715Z,95.30
2018-02-01T11:13:48.353Z,95.60
2018-02-01T11:16:15.946Z,95.90
2018-02-01T11:18:43.590Z,95.40
2018-02-01T11:21:12.161Z,95.50
2018-02-01T11:23:39.791Z,95.70
2018-02-01T11:26:08.185Z,94.80
2018-02-01T11:28:35.836Z,94.70
2018-02-01T11:31:04.359Z,96.10
2018-02-01T11:33:31.987Z,95.50
2018-02-01T11:36:00.605Z,95.70
2018-02-01T11:38:28.258Z,95.00
2018-02-01T11:40:55.847Z,96.10
2018-02-01T11:43:23.474Z,95.80
2018-02-01T11:45:51.117Z,95.60
2018-02-01T11:48:18.751Z,96.10
2018-02-01T11:50:46.397Z,96.00
2018-02-01T11:53:14.025Z,96.30
2018-02-01T11:55:41.671Z,96.10
2018-02-01T11:58:09.316Z,95.70
2018-02-01T12:00:36.975Z,95.80
2018-02-01T12:03:04.605Z,96.20
2018-02-01T12:05:35.352Z,96.20
2018-02-01T12:08:02.989Z,96.50
2018-02-01T12:10:30.590Z,95.50
2018-02-01T12:12:58.216Z,95.00
2018-02-01T12:15:25.844Z,95.00
2018-02-01T12:17:53.473Z,95.20
2018-02-01T12:20:21.095Z,93.60
2018-02-01T12:22:48.710Z,94.50
2018-02-01T12:25:16.348Z,94.70
2018-02-01T12:27:43.955Z,93.70
2018-02-01T12:30:11.587Z,94.00
2018-02-01T12:32:39.221Z,94.10
2018-02-01T12:35:06.819Z,93.80
2018-02-01T12:37:34.456Z,94.10
2018-02-01T12:40:02.072Z,94.10
2018-02-01T12:42:29.720Z,93.30
2018-02-01T12:44:57.317Z,93.30
2018-02-01T12:47:25.689Z,92.20
2018-02-01T12:49:54.052Z,92.60
2018-02-01T12:52:21.676Z,92.60
2018-02-01T12:54:50.309Z,93.70
2018-02-01T12:57:17.949Z,93.30
2018-02-01T12:59:45.604Z,92.90
2018-02-01T13:02:13.200Z,93.20
2018-02-01T13:04:40.817Z,92.90
2018-02-01T13:07:08.384Z,91.30
2018-02-01T13:09:36.985Z,91.40
2018-02-01T13:12:04.599Z,92.40
2018-02-01T13:14:32.255Z,92.20
2018-02-01T13:16:59.858Z,91.30
2018-02-01T13:19:27.485Z,91.20
2018-02-01T13:21:55.069Z,90.50
2018-02-01T13:24:22.695Z,91.20
2018-02-01T13:26:50.291Z,90.40
2018-02-01T13:29:17.930Z,91.50
2018-02-01T13:31:45.531Z,90.20
2018-02-01T13:34:13.169Z,90.50
2018-02-01T13:36:40.830Z,91.40
2018-02-01T13:39:09.413Z,90.90
2018-02-01T13:41:37.034Z,90.80
2018-02-01T13:44:04.660Z,92.60
2018-02-01T13:46:33.096Z,92.00
2018-02-01T13:49:04.453Z,92.70
2018-02-01T13:51:32.100Z,91.30
2018-02-01T13:54:06.495Z,92.30
2018-02-01T13:56:34.134Z,93.30
2018-02-01T13:59:06.067Z,92.80
2018-02-01T14:01:33.704Z,92.80
2018-02-01T14:04:01.310Z,93.50
2018-02-01T14:06:29.699Z,93.20
2018-02-01T14:09:00.626Z,93.10
2018-02-01T14:11:28.258Z,93.30
2018-02-01T14:13:57.860Z,93.60
2018-02-01T14:16:25.482Z,92.30
2018-02-01T14:18:54.013Z,93.10
2018-02-01T14:21:21.660Z,93.40
2018-02-01T14:23:50.275Z,93.20
2018-02-01T14:26:17.918Z,93.80
2018-02-01T14:28:45.548Z,95.00
2018-02-01T14:31:13.139Z,94.70
2018-02-01T14:33:40.766Z,93.60
2018-02-01T14:36:08.361Z,93.90
2018-02-01T14:38:36.953Z,93.20
2018-02-01T14:41:04.549Z,93.30
2018-02-01T14:43:32.183Z,93.70
2018-02-01T14:45:59.817Z,93.50
2018-02-01T14:48:27.397Z,93.80
2018-02-01T14:50:55.061Z,94.40
2018-02-01T14:53:23.421Z,93.90
2018-02-01T14:55:51.068Z,93.90
2018-02-01T14:58:18.653Z,94.50
2018-02-01T15:00:46.302Z,94.90
2018-02-01T15:03:15.901Z,94.00
2018-02-01T15:05:43.527Z,94.30
2018-02-01T15:08:11.151Z,94.40
2018-02-01T15:10:38.769Z,95.10
2018-02-01T15:13:06.382Z,94.90
2018-02-01T15:15:34.012Z,94.90
2018-02-01T15:18:01.617Z,94.50
2018-02-01T15:20:29.248Z,93.40
2018-02-01T15:22:56.884Z,94.20
2018-02-01T15:25:24.511Z,93.70
2018-02-01T15:27:52.128Z,94.10
2018-02-01T15:30:19.745Z,94.30
2018-02-01T15:33:06.437Z,94.50
2018-02-01T15:41:21.847Z,94.60
2018-02-01T15:43:49.446Z,94.90
2018-02-01T15:46:17.092Z,95.00
2018-02-01T15:48:44.723Z,94.90
2018-02-01T15:51:12.350Z,95.30
2018-02-01T15:53:39.986Z,95.50
2018-02-01T15:56:07.612Z,95.40
2018-02-01T15:58:35.257Z,95.60
2018-02-01T16:01:02.929Z,95.90
2018-02-01T16:03:30.586Z,96.30
2018-02-01T16:05:58.194Z,96.20
2018-02-01T16:08:25.859Z,96.20
2018-02-01T16:10:53.490Z,96.40
2018-02-01T16:13:21.122Z,96.30
2018-02-01T16:15:48.810Z,96.30
2018-02-01T16:18:16.436Z,96.60
2018-02-01T16:20:44.081Z,97.10
2018-02-01T16:26:07.352Z,97.50
2018-02-01T16:28:34.987Z,97.80
2018-02-01T16:31:02.586Z,97.80
2018-02-01T16:33:30.222Z,98.00
2018-02-01T16:35:57.860Z,97.80
2018-02-01T16:38:25.480Z,97.90
2018-02-01T16:40:53.118Z,97.80
2018-02-01T16:43:20.750Z,97.80
2018-02-01T16:45:48.402Z,98.00
2018-02-01T16:48:16.053Z,98.00
2018-02-01T16:50:43.679Z,98.00
2018-02-01T16:53:11.327Z,98.00
2018-02-01T16:55:38.983Z,98.10
2018-02-01T16:58:06.626Z,98.20
2018-02-01T17:00:34.294Z,98.40
2018-02-01T17:03:01.938Z,98.60
2018-02-01T17:05:29.592Z,98.80
2018-02-01T17:07:57.192Z,99.00
2018-02-01T17:10:24.821Z,99.10
2018-02-01T17:12:52.435Z,99.10
2018-02-01T17:15:20.072Z,99.10
2018-02-01T17:17:47.945Z,99.30
2018-02-01T17:20:15.564Z,99.30
2018-02-01T17:22:43.187Z,99.20
2018-02-01T17:25:10.807Z,99.20
2018-02-01T17:27:38.441Z,99.20
2018-02-01T17:30:06.075Z,99.50
2018-02-01T17:32:33.722Z,99.50
2018-02-01T17:35:02.392Z,99.70
2018-02-01T17:37:30.024Z,99.80
2018-02-01T17:39:57.676Z,99.90
2018-02-01T17:42:25.300Z,99.90
2018-02-01T17:44:52.912Z,99.90
2018-02-01T17:47:20.561Z,99.90
2018-02-01T17:49:49.139Z,99.90
2018-02-01T17:52:16.795Z,99.90
2018-02-01T17:54:44.412Z,99.90
2018-02-01T17:57:12.038Z,99.90
2018-02-01T17:59:39.626Z,99.90
2018-02-01T18:02:07.259Z,99.90
2018-02-01T18:04:34.879Z,99.90
2018-02-01T18:07:02.525Z,99.90
2018-02-01T18:09:30.136Z,99.90
2018-02-01T18:11:57.757Z,99.90
2018-02-01T18:14:29.794Z,99.90
2018-02-01T18:16:57.415Z,99.90
2018-02-01T18:19:35.822Z,99.80
2018-02-01T18:22:03.442Z,99.60
2018-02-01T18:24:34.359Z,99.60
2018-02-01T18:27:02.727Z,99.60
2018-02-01T18:29:31.132Z,99.80
2018-02-01T18:31:58.720Z,99.70
2018-02-01T18:34:26.349Z,99.90
2018-02-01T18:36:53.963Z,99.90
2018-02-01T18:39:23.602Z,99.90
2018-02-01T18:41:52.014Z,99.90
2018-02-01T18:44:24.349Z,99.90
2018-02-01T18:46:52.745Z,99.90
2018-02-01T18:49:26.183Z,99.90
2018-02-01T18:51:53.779Z,99.90
2018-02-01T18:54:24.086Z,99.90
2018-02-01T18:56:51.726Z,99.90
2018-02-01T18:59:19.352Z,99.90
2018-02-01T19:01:46.974Z,99.90
2018-02-01T19:04:19.223Z,99.90
2018-02-01T19:06:46.856Z,99.90
2018-02-01T19:09:15.490Z,99.90
2018-02-01T19:11:43.129Z,99.90
2018-02-01T19:14:10.758Z,99.90
2018-02-01T19:16:38.621Z,99.90
2018-02-01T19:19:06.208Z,99.90
2018-02-01T19:21:33.830Z,99.90
2018-02-01T19:24:01.435Z,99.90
2018-02-01T19:26:29.042Z,99.90
2018-02-01T19:28:58.644Z,99.90
2018-02-01T19:31:26.270Z,99.90
2018-02-01T19:33:54.945Z,99.90
2018-02-01T19:36:22.543Z,99.90
2018-02-01T19:38:51.113Z,99.90
2018-02-01T19:41:18.731Z,99.90
2018-02-01T19:43:46.377Z,99.90
2018-02-01T19:46:13.976Z,99.90
2018-02-01T19:48:41.595Z,99.90
2018-02-01T19:51:09.185Z,99.90
2018-02-01T19:53:36.826Z,99.90
2018-02-01T19:56:04.416Z,99.90
2018-02-01T19:58:32.038Z,99.90
2018-02-01T20:00:59.648Z,99.90
2018-02-01T20:03:28.243Z,99.90
2018-02-01T20:05:55.879Z,99.90
2018-02-01T20:08:23.513Z,99.90
2018-02-01T20:10:51.133Z,99.90
2018-02-01T20:13:18.777Z,99.90
2018-02-01T20:15:46.415Z,99.90
2018-02-01T20:18:14.046Z,99.90
2018-02-01T20:20:41.671Z,99.90
2018-02-01T20:23:09.307Z,99.90
2018-02-01T20:25:36.951Z,99.90
2018-02-01T20:28:04.571Z,99.90
2018-02-01T20:30:32.214Z,99.90
2018-02-01T20:32:59.861Z,99.90
2018-02-01T20:35:27.493Z,99.90
2018-02-01T20:37:55.130Z,99.90
2018-02-01T20:40:22.800Z,99.90
2018-02-01T20:42:50.462Z,99.90
2018-02-01T20:45:18.113Z,99.90
2018-02-01T20:47:45.720Z,99.90
2018-02-01T20:50:13.346Z,99.90
2018-02-01T20:52:40.990Z,99.90
2018-02-01T20:55:08.653Z,99.90
2018-02-01T20:57:36.333Z,99.90
2018-02-01T21:00:03.964Z,99.90
2018-02-01T21:02:31.671Z,99.90
2018-02-01T21:04:59.350Z,99.90
2018-02-01T21:07:30.746Z,99.90
2018-02-01T21:09:58.375Z,99.90
2018-02-01T21:12:26.014Z,99.90
2018-02-01T21:14:53.658Z,99.90
2018-02-01T21:17:21.323Z,99.90
2018-02-01T21:19:48.974Z,99.90
2018-02-01T21:22:16.679Z,99.90
2018-02-01T21:24:44.305Z,99.90
2018-02-01T21:27:11.969Z,99.90
2018-02-01T21:29:39.626Z,99.90
2018-02-01T21:32:07.264Z,99.90
2018-02-01T21:34:34.915Z,99.90
2018-02-01T21:37:02.587Z,99.90
2018-02-01T21:39:30.322Z,99.90
2018-02-01T21:41:57.990Z,99.90
2018-02-01T21:44:25.639Z,99.90
2018-02-01T21:46:53.351Z,99.90
2018-02-01T21:49:21.035Z,99.90
2018-02-01T21:51:49.656Z,99.90
2018-02-01T21:54:17.326Z,99.90
2018-02-01T21:56:45.908Z,99.90
2018-02-01T21:59:13.634Z,99.90
2018-02-01T22:01:41.269Z,99.90
2018-02-01T22:04:08.909Z,99.90
2018-02-01T22:06:36.609Z,99.90
2018-02-01T22:09:04.308Z,99.90
2018-02-01T22:11:31.984Z,99.90
2018-02-01T22:13:59.628Z,99.90
2018-02-01T22:16:27.332Z,99.90
2018-02-01T22:18:54.987Z,99.90
2018-02-01T22:21:22.668Z,99.90
2018-02-01T22:23:50.303Z,99.90
2018-02-01T22:26:20.140Z,99.90
2018-02-01T22:28:47.825Z,99.90
2018-02-01T22:31:17.451Z,99.90
2018-02-01T22:33:45.072Z,99.90
2018-02-01T22:36:13.806Z,99.90
2018-02-01T22:38:41.460Z,99.90
2018-02-01T22:41:10.078Z,99.90
2018-02-01T22:43:37.765Z,99.90
2018-02-01T22:46:05.408Z,99.90
2018-02-01T22:48:33.052Z,99.90
2018-02-01T22:51:01.605Z,99.90
2018-02-01T22:53:30.035Z,99.90
2018-02-01T22:55:57.701Z,99.90
2018-02-01T22:58:25.386Z,99.90
2018-02-01T23:00:53.024Z,99.90
2018-02-01T23:03:20.686Z,99.90
2018-02-01T23:05:48.353Z,99.90
2018-02-01T23:08:16.014Z,99.90
2018-02-01T23:10:44.672Z,99.90
2018-02-01T23:13:12.325Z,99.90
2018-02-01T23:15:40.714Z,99.90
2018-02-01T23:18:08.390Z,99.90
2018-02-01T23:20:36.059Z,99.90
2018-02-01T23:23:04.769Z,99.90
2018-02-01T23:25:32.458Z,99.90
2018-02-01T23:28:00.169Z,99.90
2018-02-01T23:30:27.860Z,99.90
2018-02-01T23:32:59.233Z,99.90
2018-02-01T23:35:26.960Z,99.90
2018-02-01T23:37:54.793Z,99.90
2018-02-01T23:40:25.108Z,99.90
2018-02-01T23:42:53.887Z,99.90
2018-02-01T23:45:23.319Z,99.90
2018-02-01T23:47:54.585Z,99.90
2018-02-01T23:50:24.002Z,99.90
2018-02-01T23:52:51.698Z,99.90
2018-02-01T23:55:19.462Z,99.90
2018-02-01T23:57:47.133Z,99.90
